Time;durP1;ratioP1;P1;durP2;ratioP2;P2;SDS_P1;SDS_P2;PMS_P1;PMS_P2;Temp;Humidity;BMP_temperature;BMP_pressure;BME280_temperature;BME280_humidity;BME280_pressure;Samples;Min_cycle;Max_cycle;Signal;HPM_P1;HPM_P2
2023/12/18 00:01:33;;;;;;;13.10;11.80;;;3.90;99.90;;;;;;10426330;28;20241;-79
2023/12/18 00:06:36;;;;;;;12.97;10.53;;;3.90;99.90;;;;;;10443362;28;20634;-79
2023/12/18 00:11:40;;;;;;;14.20;12.70;;;3.80;99.90;;;;;;10431579;28;20302;-79
2023/12/18 00:16:43;;;;;;;10.13;9.23;;;3.80;99.90;;;;;;10444627;28;20209;-79
2023/12/18 00:21:45;;;;;;;12.50;11.33;;;3.80;99.90;;;;;;10446080;28;20240;-79
2023/12/18 00:26:49;;;;;;;10.57;9.57;;;3.70;99.90;;;;;;10431042;28;20760;-78
2023/12/18 00:31:51;;;;;;;9.83;9.03;;;3.70;99.90;;;;;;10441524;28;20244;-78
2023/12/18 00:36:53;;;;;;;9.37;8.33;;;3.70;99.90;;;;;;10425884;28;20201;-78
2023/12/18 00:41:57;;;;;;;10.10;9.00;;;3.80;99.90;;;;;;10448675;28;20722;-79
2023/12/18 00:46:59;;;;;;;9.03;8.17;;;3.60;99.90;;;;;;10430089;28;20202;-78
2023/12/18 00:52:02;;;;;;;8.13;6.67;;;3.60;99.90;;;;;;10448260;28;20240;-79
2023/12/18 00:57:05;;;;;;;7.30;6.70;;;3.60;99.90;;;;;;10428288;28;20232;-79
2023/12/18 01:02:08;;;;;;;7.00;6.43;;;3.60;99.90;;;;;;10446254;28;20218;-79
2023/12/18 01:07:10;;;;;;;7.80;6.90;;;3.60;99.90;;;;;;10429284;28;20620;-80
2023/12/18 01:12:14;;;;;;;8.43;7.40;;;3.60;99.90;;;;;;10448767;28;20222;-79
2023/12/18 01:17:16;;;;;;;12.87;8.77;;;3.60;99.90;;;;;;10421071;28;20205;-78
2023/12/18 01:22:18;;;;;;;9.00;8.20;;;3.70;99.90;;;;;;10438923;28;20226;-78
2023/12/18 01:27:22;;;;;;;9.00;8.10;;;3.80;99.90;;;;;;10421604;28;20198;-79
2023/12/18 01:32:24;;;;;;;8.13;7.40;;;3.90;99.90;;;;;;10442679;28;20209;-79
2023/12/18 01:37:27;;;;;;;8.80;7.90;;;3.90;99.90;;;;;;10421529;28;20202;-79
2023/12/18 01:42:32;;;;;;;11.00;9.13;;;3.90;99.90;;;;;;10442243;28;20230;-78
2023/12/18 01:47:34;;;;;;;10.23;9.20;;;3.90;99.90;;;;;;10423305;28;20197;-79
2023/12/18 01:52:38;;;;;;;10.33;9.13;;;3.90;99.90;;;;;;10451721;28;20210;-79
2023/12/18 01:57:41;;;;;;;9.50;8.60;;;3.90;99.90;;;;;;10420126;28;20202;-78
2023/12/18 02:02:44;;;;;;;8.93;8.13;;;3.90;99.90;;;;;;10438742;28;20273;-79
2023/12/18 02:07:51;;;;;;;9.80;8.90;;;3.80;99.90;;;;;;10427492;28;20271;-79
2023/12/18 02:12:55;;;;;;;9.83;8.83;;;3.80;99.90;;;;;;10450230;28;20221;-77
2023/12/18 02:17:57;;;;;;;10.83;9.80;;;3.80;99.90;;;;;;10424968;28;20213;-78
2023/12/18 02:23:01;;;;;;;12.00;9.60;;;3.80;99.90;;;;;;10450633;28;20214;-79
2023/12/18 02:28:05;;;;;;;11.07;9.20;;;3.70;99.90;;;;;;10424764;28;20197;-78
2023/12/18 02:33:08;;;;;;;11.73;9.00;;;3.60;99.90;;;;;;10450537;28;20241;-79
2023/12/18 02:38:11;;;;;;;9.60;8.70;;;3.60;99.90;;;;;;10425342;28;20241;-79
2023/12/18 02:43:14;;;;;;;10.40;9.40;;;3.60;99.90;;;;;;10451246;28;20236;-79
2023/12/18 02:48:16;;;;;;;10.10;9.10;;;3.60;99.90;;;;;;10422863;28;20256;-79
2023/12/18 02:53:20;;;;;;;10.17;9.00;;;3.50;99.90;;;;;;10450232;28;20221;-78
2023/12/18 02:58:22;;;;;;;8.53;7.73;;;3.40;99.90;;;;;;10420167;28;20190;-79
2023/12/18 03:03:25;;;;;;;9.03;8.13;;;3.40;99.90;;;;;;10448828;28;20226;-79
2023/12/18 03:08:28;;;;;;;9.60;7.87;;;3.40;99.90;;;;;;10424246;28;20225;-80
2023/12/18 03:13:31;;;;;;;8.60;7.80;;;3.50;99.90;;;;;;10452898;28;20206;-79
2023/12/18 03:18:33;;;;;;;9.20;8.30;;;3.40;99.90;;;;;;10423200;28;20209;-79
2023/12/18 03:23:36;;;;;;;8.23;7.43;;;3.30;99.90;;;;;;10447324;28;20707;-79
2023/12/18 03:28:39;;;;;;;8.60;7.90;;;3.40;99.90;;;;;;10414648;28;20271;-78
2023/12/18 03:33:42;;;;;;;8.03;7.30;;;3.30;99.90;;;;;;10384105;28;20210;-78
2023/12/18 03:38:46;;;;;;;8.10;7.40;;;3.40;99.90;;;;;;10383689;28;20208;-78
2023/12/18 03:43:50;;;;;;;8.03;7.27;;;3.30;99.90;;;;;;10384182;28;20236;-78
2023/12/18 03:48:52;;;;;;;7.83;6.40;;;3.40;99.90;;;;;;10414795;28;20240;-78
2023/12/18 03:53:56;;;;;;;6.80;6.13;;;3.40;99.90;;;;;;10445348;28;20221;-78
2023/12/18 03:58:58;;;;;;;7.30;6.30;;;3.40;99.90;;;;;;10413486;28;20194;-79
2023/12/18 04:04:01;;;;;;;7.23;6.53;;;3.30;99.90;;;;;;10444969;28;20248;-79
2023/12/18 04:09:04;;;;;;;6.50;6.00;;;3.30;99.90;;;;;;10413690;28;20201;-78
2023/12/18 04:14:07;;;;;;;6.07;5.57;;;3.30;99.90;;;;;;10443448;28;20218;-78
2023/12/18 04:19:09;;;;;;;6.43;5.83;;;3.30;99.90;;;;;;10418414;28;20194;-80
2023/12/18 04:24:13;;;;;;;6.50;5.90;;;3.30;99.90;;;;;;10449598;28;20225;-78
2023/12/18 04:29:16;;;;;;;5.37;4.97;;;3.30;99.90;;;;;;10417197;28;20190;-80
2023/12/18 04:34:19;;;;;;;6.00;5.40;;;3.30;99.90;;;;;;10448488;28;20210;-78
2023/12/18 04:39:23;;;;;;;5.73;5.33;;;3.30;99.90;;;;;;10420935;28;20190;-79
2023/12/18 04:44:25;;;;;;;5.77;5.27;;;3.30;99.90;;;;;;10454036;28;20268;-78
2023/12/18 04:49:27;;;;;;;6.10;5.60;;;3.20;99.90;;;;;;10419853;28;20675;-78
2023/12/18 04:54:31;;;;;;;5.47;5.03;;;3.30;99.90;;;;;;10454558;28;20240;-78
2023/12/18 04:59:33;;;;;;;5.23;4.73;;;3.30;99.90;;;;;;10420219;28;20237;-78
2023/12/18 05:04:36;;;;;;;6.50;5.90;;;3.30;99.90;;;;;;10451240;28;20272;-78
2023/12/18 05:09:40;;;;;;;6.40;5.60;;;3.20;99.90;;;;;;10421740;28;20225;-78
2023/12/18 05:14:42;;;;;;;8.37;5.50;;;3.20;99.90;;;;;;10455959;28;20648;-78
2023/12/18 05:19:44;;;;;;;5.90;5.40;;;3.20;99.90;;;;;;10455048;28;20642;-78
2023/12/18 05:24:48;;;;;;;5.70;5.20;;;3.20;99.90;;;;;;10422131;28;20218;-78
2023/12/18 05:29:50;;;;;;;5.33;4.93;;;3.20;99.90;;;;;;10456265;28;20214;-79
2023/12/18 05:34:53;;;;;;;5.63;4.97;;;3.20;99.90;;;;;;10420837;28;20185;-77
2023/12/18 05:39:57;;;;;;;5.87;5.40;;;3.10;99.90;;;;;;10459312;28;20699;-80
2023/12/18 05:44:59;;;;;;;7.13;6.50;;;3.10;99.90;;;;;;10430290;28;20258;-80
2023/12/18 05:50:01;;;;;;;7.30;6.60;;;3.00;99.90;;;;;;10461589;28;20233;-80
2023/12/18 05:55:07;;;;;;;7.83;7.13;;;3.10;99.90;;;;;;10422887;28;20627;-78
2023/12/18 06:00:10;;;;;;;8.57;7.70;;;3.10;99.90;;;;;;10431559;28;20226;-81
2023/12/18 06:05:13;;;;;;;7.47;6.80;;;3.10;99.90;;;;;;10432365;28;20213;-80
2023/12/18 06:10:16;;;;;;;8.70;7.80;;;3.10;99.90;;;;;;10430839;28;20213;-78
2023/12/18 06:15:19;;;;;;;7.80;6.60;;;3.10;99.90;;;;;;10424728;28;20198;-78
2023/12/18 06:20:21;;;;;;;17.83;12.77;;;3.10;99.90;;;;;;10427790;28;20209;-79
2023/12/18 06:25:25;;;;;;;21.10;13.27;;;3.10;99.90;;;;;;10424128;28;20267;-79
2023/12/18 06:30:27;;;;;;;14.03;11.30;;;3.10;99.90;;;;;;10428615;28;20221;-79
2023/12/18 06:35:29;;;;;;;13.47;11.23;;;3.10;99.90;;;;;;10425613;28;20212;-79
2023/12/18 06:40:33;;;;;;;12.47;9.67;;;3.00;99.90;;;;;;10430111;28;20756;-79
2023/12/18 06:45:36;;;;;;;14.20;11.47;;;3.00;99.90;;;;;;10423510;28;20221;-79
2023/12/18 06:50:38;;;;;;;10.97;8.73;;;3.00;99.90;;;;;;10428638;28;20216;-79
2023/12/18 06:55:42;;;;;;;32.00;22.13;;;3.00;99.90;;;;;;10386175;28;20206;-78
2023/12/18 07:00:44;;;;;;;12.73;10.57;;;3.00;99.90;;;;;;10430783;28;20267;-79
2023/12/18 07:05:47;;;;;;;10.93;9.83;;;3.00;99.90;;;;;;10425934;28;20218;-79
2023/12/18 07:10:51;;;;;;;10.20;9.30;;;3.00;99.90;;;;;;10431587;28;20205;-79
2023/12/18 07:15:53;;;;;;;9.33;7.80;;;3.00;99.90;;;;;;10419068;28;20194;-78
2023/12/18 07:20:55;;;;;;;8.07;7.30;;;3.00;99.90;;;;;;10422556;28;20216;-79
2023/12/18 07:25:59;;;;;;;8.40;7.50;;;3.10;99.90;;;;;;10418060;28;20772;-79
2023/12/18 07:31:01;;;;;;;9.93;8.87;;;3.00;99.90;;;;;;10406294;28;20213;-79
2023/12/18 07:36:04;;;;;;;8.00;7.20;;;3.10;99.90;;;;;;10419906;28;20252;-78
2023/12/18 07:41:08;;;;;;;7.33;6.63;;;3.10;99.90;;;;;;10421899;28;20209;-79
2023/12/18 07:46:18;;;;;;;7.27;6.63;;;3.20;99.90;;;;;;10418073;28;20700;-79
2023/12/18 07:51:20;;;;;;;8.07;6.97;;;3.20;99.90;;;;;;10420599;28;20217;-79
2023/12/18 07:56:24;;;;;;;6.60;6.00;;;3.20;99.90;;;;;;10415732;28;20236;-78
2023/12/18 08:01:27;;;;;;;6.57;5.97;;;3.20;99.90;;;;;;10417274;28;20636;-78
2023/12/18 08:06:29;;;;;;;7.67;6.63;;;3.20;99.90;;;;;;10415069;28;20214;-78
2023/12/18 08:11:32;;;;;;;7.27;6.57;;;3.20;99.90;;;;;;10422744;28;20251;-78
2023/12/18 08:16:35;;;;;;;7.50;5.93;;;3.30;99.90;;;;;;10422963;28;20198;-78
2023/12/18 08:21:37;;;;;;;5.63;5.13;;;3.30;99.90;;;;;;10430495;28;20686;-79
2023/12/18 08:26:41;;;;;;;7.80;6.40;;;3.30;99.90;;;;;;10425571;28;20222;-78
2023/12/18 08:31:43;;;;;;;9.57;8.60;;;3.30;99.90;;;;;;10429543;28;20850;-78
2023/12/18 08:36:46;;;;;;;7.20;6.50;;;3.40;99.90;;;;;;10425742;28;20554;-79
2023/12/18 08:41:49;;;;;;;6.97;6.27;;;3.40;99.90;;;;;;10430646;28;20220;-79
2023/12/18 08:46:52;;;;;;;7.73;7.03;;;3.40;99.90;;;;;;10427673;28;20245;-78
2023/12/18 08:51:54;;;;;;;9.23;7.67;;;3.40;99.90;;;;;;10426532;28;20229;-78
2023/12/18 08:56:58;;;;;;;11.83;7.20;;;3.50;99.90;;;;;;10422094;28;20675;-78
2023/12/18 09:02:00;;;;;;;7.60;6.90;;;3.60;99.90;;;;;;10426907;28;20227;-79
2023/12/18 09:07:03;;;;;;;18.63;7.10;;;3.70;99.90;;;;;;10427376;28;20777;-78
2023/12/18 09:12:07;;;;;;;6.90;5.87;;;3.80;99.90;;;;;;10438727;28;20216;-81
2023/12/18 09:17:10;;;;;;;6.63;6.03;;;3.90;99.90;;;;;;10438953;28;20194;-81
2023/12/18 09:22:12;;;;;;;5.70;5.17;;;4.00;99.90;;;;;;10432820;28;20209;-79
2023/12/18 09:27:16;;;;;;;7.20;5.80;;;4.00;99.90;;;;;;10427664;28;20210;-78
2023/12/18 09:32:18;;;;;;;7.40;6.00;;;4.10;99.90;;;;;;10429894;28;20217;-78
2023/12/18 09:37:20;;;;;;;7.20;6.23;;;4.10;99.90;;;;;;10428333;28;20260;-78
2023/12/18 09:42:25;;;;;;;6.60;5.90;;;4.20;99.90;;;;;;10430636;28;20217;-79
2023/12/18 09:47:27;;;;;;;6.93;5.90;;;4.30;99.90;;;;;;10428814;28;20284;-79
2023/12/18 09:52:33;;;;;;;8.20;7.23;;;4.30;99.90;;;;;;10430015;28;20228;-76
2023/12/18 09:57:38;;;;;;;7.23;6.23;;;4.40;99.90;;;;;;10423993;28;20197;-78
2023/12/18 10:02:43;;;;;;;6.50;5.90;;;4.50;99.90;;;;;;10426895;28;20236;-78
2023/12/18 10:07:46;;;;;;;7.60;6.90;;;4.60;99.90;;;;;;10424469;28;20218;-79
2023/12/18 10:12:50;;;;;;;7.00;6.10;;;4.60;99.90;;;;;;10428206;28;20224;-78
2023/12/18 10:17:54;;;;;;;6.40;5.70;;;4.70;99.90;;;;;;10437029;28;20618;-79
2023/12/18 10:22:56;;;;;;;10.27;7.23;;;4.80;99.90;;;;;;10425780;28;20217;-79
2023/12/18 10:28:00;;;;;;;7.97;6.77;;;4.90;99.90;;;;;;10429170;28;20221;-78
2023/12/18 10:33:05;;;;;;;7.77;6.97;;;4.90;99.90;;;;;;10426941;28;20218;-79
2023/12/18 10:38:09;;;;;;;9.27;8.20;;;5.00;99.90;;;;;;10428692;28;20581;-79
2023/12/18 10:43:22;;;;;;;9.27;8.37;;;5.10;99.90;;;;;;10426025;28;20225;-79
2023/12/18 10:48:26;;;;;;;9.93;9.00;;;5.20;99.90;;;;;;10428974;28;20237;-79
2023/12/18 10:53:33;;;;;;;10.30;9.30;;;5.30;99.90;;;;;;10421468;28;20226;-79
2023/12/18 10:58:39;;;;;;;10.47;9.43;;;5.40;99.90;;;;;;10432054;28;20189;-78
2023/12/18 11:03:42;;;;;;;11.20;10.10;;;5.50;99.90;;;;;;10426760;28;20254;-79
2023/12/18 11:08:45;;;;;;;21.50;13.40;;;5.60;99.90;;;;;;10433150;28;20235;-79
2023/12/18 11:14:12;;;;;;;13.40;12.13;;;5.60;99.90;;;;;;10426249;28;20292;-79
2023/12/18 11:19:24;;;;;;;16.00;13.90;;;5.60;99.90;;;;;;10432843;28;20198;-79
2023/12/18 11:24:35;;;;;;;14.90;13.30;;;5.80;99.90;;;;;;10425065;28;20229;-79
2023/12/18 11:29:46;;;;;;;17.03;13.93;;;5.90;99.90;;;;;;10441905;28;20197;-79
2023/12/18 11:34:49;;;;;;;14.47;12.80;;;;;;;;;;10422515;28;20204;-79
2023/12/18 11:39:51;;;;;;;15.20;13.60;;;6.00;99.90;;;;;;10442766;28;20217;-79
2023/12/18 11:45:02;;;;;;;15.23;12.80;;;6.00;99.90;;;;;;10422940;28;20230;-79
2023/12/18 11:50:07;;;;;;;15.10;13.60;;;6.10;99.90;;;;;;10443145;28;20591;-80
2023/12/18 11:55:10;;;;;;;14.03;12.67;;;6.00;99.90;;;;;;10418121;28;20268;-78
2023/12/18 12:00:18;;;;;;;16.20;14.50;;;6.10;99.90;;;;;;10442397;28;20220;-80
2023/12/18 12:05:21;;;;;;;14.63;12.30;;;6.20;99.90;;;;;;10423661;28;20221;-80
2023/12/18 12:10:23;;;;;;;13.47;11.83;;;6.20;99.90;;;;;;10450633;28;20225;-80
2023/12/18 12:15:28;;;;;;;12.90;11.30;;;6.20;99.90;;;;;;10426604;28;20264;-80
2023/12/18 12:20:30;;;;;;;13.77;12.07;;;6.30;99.90;;;;;;10446670;28;20225;-80
2023/12/18 12:25:32;;;;;;;13.90;12.20;;;6.30;99.90;;;;;;10423525;28;20213;-80
2023/12/18 12:30:36;;;;;;;12.73;11.40;;;6.40;99.90;;;;;;10450840;28;20209;-78
2023/12/18 12:35:39;;;;;;;15.10;13.70;;;6.40;99.90;;;;;;10425617;28;20585;-81
2023/12/18 12:40:42;;;;;;;16.50;13.17;;;6.40;99.90;;;;;;10449858;28;20209;-80
2023/12/18 12:45:46;;;;;;;14.93;12.57;;;6.30;99.90;;;;;;10427755;28;20698;-80
2023/12/18 12:50:48;;;;;;;14.67;12.77;;;6.40;99.90;;;;;;10450567;28;20279;-80
2023/12/18 12:55:51;;;;;;;12.63;11.40;;;6.40;99.90;;;;;;10424569;28;20197;-80
2023/12/18 13:00:55;;;;;;;15.30;13.70;;;6.50;99.90;;;;;;10451486;28;20694;-80
2023/12/18 13:05:58;;;;;;;13.40;12.10;;;6.60;99.90;;;;;;10432068;28;20229;-80
2023/12/18 13:11:04;;;;;;;10.77;9.23;;;6.60;99.90;;;;;;10453953;28;20213;-80
2023/12/18 13:16:08;;;;;;;14.13;12.67;;;6.60;99.90;;;;;;10433406;28;20225;-79
2023/12/18 13:21:11;;;;;;;12.57;11.27;;;6.60;99.90;;;;;;10457962;28;20592;-81
2023/12/18 13:26:13;;;;;;;14.80;13.37;;;6.60;99.90;;;;;;10439278;28;20623;-80
2023/12/18 13:31:17;;;;;;;11.47;10.27;;;6.50;99.90;;;;;;10451682;28;20306;-79
2023/12/18 13:36:19;;;;;;;13.10;11.83;;;6.50;99.90;;;;;;10428239;28;20218;-79
2023/12/18 13:41:27;;;;;;;14.00;12.60;;;6.50;99.90;;;;;;10446788;28;20267;-78
2023/12/18 13:46:31;;;;;;;12.23;11.17;;;6.50;99.90;;;;;;10426831;28;20222;-79
2023/12/18 13:51:34;;;;;;;14.83;10.80;;;6.40;99.90;;;;;;10449601;28;20228;-78
2023/12/18 13:56:36;;;;;;;13.23;11.27;;;6.30;99.90;;;;;;10424163;28;20256;-78
2023/12/18 14:01:40;;;;;;;12.53;11.20;;;6.30;99.90;;;;;;10447742;28;20263;-77
2023/12/18 14:06:43;;;;;;;11.80;10.70;;;6.40;99.90;;;;;;10428547;28;20213;-79
2023/12/18 14:11:45;;;;;;;12.43;10.60;;;6.40;99.90;;;;;;10450990;28;20214;-78
2023/12/18 14:16:49;;;;;;;11.57;9.47;;;6.40;99.90;;;;;;10428535;28;20252;-78
2023/12/18 14:21:51;;;;;;;10.83;9.83;;;6.40;99.90;;;;;;10449023;28;20205;-78
2023/12/18 14:26:53;;;;;;;10.67;9.57;;;6.40;99.90;;;;;;10430053;28;20703;-79
2023/12/18 14:31:57;;;;;;;10.67;9.67;;;6.30;99.90;;;;;;10419129;28;20336;-78
2023/12/18 14:37:03;;;;;;;10.00;8.90;;;6.30;99.90;;;;;;10417743;28;20202;-79
2023/12/18 14:42:06;;;;;;;12.10;10.90;;;6.30;99.90;;;;;;10417176;28;20355;-79
2023/12/18 14:47:10;;;;;;;12.80;11.40;;;6.30;99.90;;;;;;10418559;28;20214;-79
2023/12/18 14:52:12;;;;;;;13.07;10.50;;;6.20;99.90;;;;;;10416581;28;20229;-78
2023/12/18 14:57:15;;;;;;;15.27;11.50;;;6.20;99.90;;;;;;10416523;28;20236;-78
2023/12/18 15:02:19;;;;;;;12.83;11.50;;;6.10;99.90;;;;;;10416832;28;20221;-78
2023/12/18 15:07:21;;;;;;;14.20;12.17;;;6.10;99.90;;;;;;10421472;28;20218;-79
2023/12/18 15:12:24;;;;;;;14.93;10.70;;;6.10;99.90;;;;;;10418102;28;20249;-79
2023/12/18 15:17:28;;;;;;;16.30;13.03;;;6.00;99.90;;;;;;10422723;28;20197;-78
2023/12/18 15:22:30;;;;;;;16.27;14.50;;;5.80;99.90;;;;;;10419441;28;20222;-79
2023/12/18 15:27:33;;;;;;;15.30;13.30;;;5.80;99.90;;;;;;10417694;28;20225;-78
2023/12/18 15:32:38;;;;;;;16.67;14.97;;;5.80;99.90;;;;;;10419941;28;20225;-77
2023/12/18 15:37:41;;;;;;;19.50;14.63;;;5.70;99.90;;;;;;10416032;28;20182;-78
2023/12/18 15:42:43;;;;;;;14.07;12.47;;;5.70;99.90;;;;;;10421319;28;20217;-79
2023/12/18 15:47:47;;;;;;;14.27;12.07;;;5.70;99.90;;;;;;10415537;28;20261;-78
2023/12/18 15:52:49;;;;;;;12.40;11.00;;;5.70;99.90;;;;;;10421809;28;20230;-78
2023/12/18 15:57:52;;;;;;;12.37;11.20;;;5.60;99.90;;;;;;10411444;28;20202;-79
2023/12/18 16:02:56;;;;;;;37.87;30.73;;;5.40;99.90;;;;;;10423306;28;20237;-79
2023/12/18 16:07:58;;;;;;;41.77;30.13;;;5.40;99.90;;;;;;10415603;28;20218;-78
2023/12/18 16:13:01;;;;;;;42.53;26.70;;;5.40;99.90;;;;;;10425281;28;20213;-78
2023/12/18 16:18:05;;;;;;;12.90;11.60;;;5.40;99.90;;;;;;10414344;28;20197;-78
2023/12/18 16:23:08;;;;;;;13.43;11.63;;;5.40;99.90;;;;;;10422070;28;20329;-78
2023/12/18 16:28:10;;;;;;;12.33;11.13;;;5.40;99.90;;;;;;10412387;28;20206;-78
2023/12/18 16:33:14;;;;;;;11.50;9.30;;;5.40;99.90;;;;;;10426788;28;20218;-78
2023/12/18 16:38:16;;;;;;;13.63;10.80;;;5.40;99.90;;;;;;10420237;28;20194;-76
2023/12/18 16:43:19;;;;;;;12.73;10.23;;;5.40;99.90;;;;;;10429924;28;20218;-77
2023/12/18 16:48:23;;;;;;;12.60;10.83;;;5.30;99.90;;;;;;10416543;28;20232;-77
2023/12/18 16:53:25;;;;;;;14.07;11.83;;;5.30;99.90;;;;;;10428884;28;20276;-76
2023/12/18 16:58:28;;;;;;;12.40;11.10;;;5.30;99.90;;;;;;10413628;28;20217;-78
2023/12/18 17:03:32;;;;;;;16.07;14.13;;;5.20;99.90;;;;;;10461491;22;20237;-81
2023/12/18 17:08:34;;;;;;;15.43;13.10;;;5.20;99.90;;;;;;10479747;28;20294;-81
2023/12/18 17:13:37;;;;;;;16.50;12.50;;;5.10;99.90;;;;;;10487148;28;20225;-81
2023/12/18 17:18:40;;;;;;;15.80;13.30;;;5.20;99.90;;;;;;10483554;28;20196;-82
2023/12/18 17:23:43;;;;;;;27.00;19.50;;;5.10;99.90;;;;;;10487017;28;20763;-81
2023/12/18 17:28:45;;;;;;;22.80;20.40;;;5.10;99.90;;;;;;10485406;28;20587;-81
2023/12/18 17:33:49;;;;;;;13.77;12.40;;;5.10;99.90;;;;;;10482962;28;20220;-81
2023/12/18 17:38:52;;;;;;;13.97;11.87;;;5.00;99.90;;;;;;10482906;28;20215;-81
2023/12/18 17:43:57;;;;;;;17.20;13.70;;;5.00;99.90;;;;;;10482039;28;20580;-81
2023/12/18 17:49:00;;;;;;;13.40;12.00;;;5.00;99.90;;;;;;10473022;28;20265;-79
2023/12/18 17:54:05;;;;;;;11.53;10.33;;;4.90;99.90;;;;;;10478787;28;20281;-78
2023/12/18 17:59:08;;;;;;;12.17;10.80;;;4.90;99.90;;;;;;10477634;28;20188;-80
2023/12/18 18:04:11;;;;;;;13.80;11.47;;;4.90;99.90;;;;;;10479464;28;20228;-79
2023/12/18 18:09:14;;;;;;;13.17;11.87;;;4.90;99.90;;;;;;10481199;28;20262;-81
2023/12/18 18:14:16;;;;;;;13.20;10.80;;;4.90;99.90;;;;;;10476226;28;20581;-79
2023/12/18 18:19:20;;;;;;;12.40;10.80;;;4.80;99.90;;;;;;10476672;28;20649;-77
2023/12/18 18:24:23;;;;;;;12.43;11.07;;;4.80;99.90;;;;;;10477948;28;20205;-80
2023/12/18 18:29:25;;;;;;;14.50;11.50;;;4.70;99.90;;;;;;10464641;28;20228;-81
2023/12/18 18:34:29;;;;;;;14.23;11.70;;;4.70;99.90;;;;;;10472295;28;20681;-81
2023/12/18 18:39:31;;;;;;;17.90;13.70;;;4.70;99.90;;;;;;10476586;28;20238;-81
2023/12/18 18:44:34;;;;;;;15.67;13.37;;;4.70;99.90;;;;;;10472063;28;20221;-81
2023/12/18 18:49:37;;;;;;;14.07;12.57;;;4.70;99.90;;;;;;10474071;28;20216;-81
2023/12/18 18:54:41;;;;;;;15.13;13.53;;;4.60;99.90;;;;;;10473456;28;20212;-81
2023/12/18 18:59:44;;;;;;;14.40;13.00;;;4.50;99.90;;;;;;10473376;28;20547;-81
2023/12/18 19:04:47;;;;;;;16.03;14.43;;;4.50;99.90;;;;;;10474101;28;20232;-80
2023/12/18 19:09:50;;;;;;;17.80;16.00;;;4.50;99.90;;;;;;10474539;28;20211;-81
2023/12/18 19:14:53;;;;;;;16.30;14.07;;;4.50;99.90;;;;;;10464171;28;20574;-81
2023/12/18 19:19:57;;;;;;;19.70;15.90;;;4.50;99.90;;;;;;10472061;28;20609;-82
2023/12/18 19:25:00;;;;;;;16.83;14.47;;;4.50;99.90;;;;;;10481286;28;20220;-82
2023/12/18 19:30:02;;;;;;;19.07;15.90;;;4.50;99.90;;;;;;10469160;28;20220;-82
2023/12/18 19:35:07;;;;;;;20.57;17.43;;;4.40;99.90;;;;;;10481304;28;20718;-81
2023/12/18 19:40:10;;;;;;;20.63;17.50;;;4.30;99.90;;;;;;10471257;28;20409;-82
2023/12/18 19:45:13;;;;;;;19.77;15.97;;;4.30;99.90;;;;;;10479127;28;20374;-82
2023/12/18 19:50:16;;;;;;;17.90;16.00;;;4.30;99.90;;;;;;10468829;28;20689;-82
2023/12/18 19:55:19;;;;;;;22.63;17.03;;;4.30;99.90;;;;;;10478679;28;20229;-83
2023/12/18 20:00:22;;;;;;;19.33;17.30;;;4.20;99.90;;;;;;10466282;28;20193;-82
2023/12/18 20:05:25;;;;;;;18.10;16.30;;;4.30;99.90;;;;;;10477996;28;20686;-81
2023/12/18 20:10:28;;;;;;;17.73;15.73;;;4.30;99.90;;;;;;10471714;28;20235;-82
2023/12/18 20:15:30;;;;;;;19.07;17.17;;;4.30;99.90;;;;;;10487278;28;20347;-82
2023/12/18 20:20:34;;;;;;;19.00;16.60;;;4.20;99.90;;;;;;10472267;28;20203;-82
2023/12/18 20:25:36;;;;;;;25.43;20.60;;;4.10;99.90;;;;;;10487255;28;20221;-82
2023/12/18 20:30:39;;;;;;;18.80;16.90;;;4.10;99.90;;;;;;10473060;28;20205;-82
2023/12/18 20:35:42;;;;;;;19.10;16.83;;;4.10;99.90;;;;;;10490022;28;20263;-82
2023/12/18 20:40:46;;;;;;;18.60;16.67;;;4.10;99.90;;;;;;10472976;28;20258;-82
2023/12/18 20:45:50;;;;;;;18.27;16.37;;;4.10;99.90;;;;;;10497696;28;20291;-82
2023/12/18 20:50:53;;;;;;;20.93;17.87;;;4.10;99.90;;;;;;10487906;28;20213;-81
2023/12/18 20:55:56;;;;;;;18.33;16.37;;;4.20;99.90;;;;;;10466856;28;20221;-81
2023/12/18 21:00:59;;;;;;;22.23;16.80;;;4.10;99.90;;;;;;10488998;28;20197;-82
2023/12/18 21:06:03;;;;;;;17.90;16.07;;;4.10;99.90;;;;;;10470029;28;20697;-82
2023/12/18 21:11:07;;;;;;;18.17;16.27;;;4.00;99.90;;;;;;10489852;28;20705;-82
2023/12/18 21:16:10;;;;;;;17.00;15.30;;;4.00;99.90;;;;;;10477070;28;20231;-81
2023/12/18 21:21:14;;;;;;;20.10;17.30;;;4.10;99.90;;;;;;10488527;28;20201;-81
2023/12/18 21:26:17;;;;;;;16.30;14.70;;;4.10;99.90;;;;;;10467314;28;20740;-82
2023/12/18 21:31:19;;;;;;;15.47;13.80;;;4.00;99.90;;;;;;10486467;28;20212;-82
2023/12/18 21:36:23;;;;;;;15.23;13.40;;;4.00;99.90;;;;;;10464953;28;20216;-82
2023/12/18 21:41:27;;;;;;;15.93;14.37;;;3.90;99.90;;;;;;10488430;28;20197;-81
2023/12/18 21:46:29;;;;;;;14.03;12.73;;;3.90;99.90;;;;;;10464596;28;20270;-82
2023/12/18 21:51:33;;;;;;;12.63;11.30;;;3.90;99.90;;;;;;10489275;28;20209;-82
2023/12/18 21:56:35;;;;;;;13.87;12.47;;;3.90;99.90;;;;;;10461834;28;20216;-82
2023/12/18 22:01:38;;;;;;;15.07;11.83;;;3.90;99.90;;;;;;10488871;28;20193;-82
2023/12/18 22:06:42;;;;;;;17.17;12.23;;;3.90;99.90;;;;;;10463995;28;20220;-82
2023/12/18 22:11:44;;;;;;;15.50;12.03;;;3.90;99.90;;;;;;10496002;28;20225;-82
2023/12/18 22:16:47;;;;;;;12.83;11.67;;;3.90;99.90;;;;;;10499206;28;20232;-82
2023/12/18 22:21:51;;;;;;;13.40;12.10;;;3.80;99.90;;;;;;10525664;28;20190;-82
2023/12/18 22:26:56;;;;;;;13.17;11.90;;;3.90;99.90;;;;;;10482917;28;20349;-82
2023/12/18 22:31:59;;;;;;;16.00;12.90;;;3.90;99.90;;;;;;10489786;28;20209;-82
2023/12/18 22:37:04;;;;;;;12.93;11.63;;;3.80;99.90;;;;;;10460730;28;20216;-82
2023/12/18 22:42:06;;;;;;;16.43;14.57;;;3.80;99.90;;;;;;10489125;28;20239;-82
2023/12/18 22:47:10;;;;;;;20.80;14.17;;;3.70;99.90;;;;;;10482730;28;20720;-82
2023/12/18 22:52:14;;;;;;;16.57;13.83;;;3.60;99.90;;;;;;10489771;28;20197;-81
2023/12/18 22:57:16;;;;;;;15.07;13.50;;;3.60;99.90;;;;;;10458648;28;20238;-82
2023/12/18 23:02:20;;;;;;;15.73;14.20;;;3.60;99.90;;;;;;10489330;28;20190;-81
2023/12/18 23:07:23;;;;;;;17.07;15.33;;;3.60;99.90;;;;;;10458749;28;20240;-82
2023/12/18 23:12:26;;;;;;;17.10;15.30;;;3.60;99.90;;;;;;10490341;28;20196;-82
2023/12/18 23:17:29;;;;;;;16.93;14.40;;;3.70;99.90;;;;;;10459209;28;20216;-82
2023/12/18 23:22:32;;;;;;;18.33;14.57;;;3.70;99.90;;;;;;10489713;28;20189;-81
2023/12/18 23:27:35;;;;;;;15.93;14.33;;;3.80;99.90;;;;;;10454180;28;20197;-82
2023/12/18 23:32:37;;;;;;;16.63;14.83;;;3.70;99.90;;;;;;10456611;28;20646;-82
2023/12/18 23:37:41;;;;;;;15.63;13.50;;;3.60;99.90;;;;;;10490702;28;20189;-82
2023/12/18 23:42:43;;;;;;;17.00;13.60;;;3.60;99.90;;;;;;10457703;28;20184;-82
2023/12/18 23:47:47;;;;;;;15.07;13.57;;;3.50;99.90;;;;;;10468747;28;20200;-82
2023/12/18 23:52:51;;;;;;;14.37;12.93;;;3.40;99.90;;;;;;10493498;28;20212;-81
2023/12/18 23:57:53;;;;;;;15.60;14.10;;;3.40;99.90;;;;;;10457235;28;20207;-82
